Terminal Aerodrome Forecast
Issued by NWS

Home | Current Version | Previous Version | Text Only | Print | Product List | Glossary On
Versions: 1 2 3 4 5 6 7 8
000
FTUS46 KHNX 271142
TAFBFL
TAF
KBFL 271142Z 2712/2812 VRB05KT P6SM SCT200
     FM271900 30010KT P6SM SCT050 BKN100
     FM280300 33012KT P6SM VCSH SCT030 BKN040=

USA.gov is the U.S. government's official web portal to all federal, state and local government web resources and services.